createdAt,value
2022-09-28T06:02:59.090Z,8.05
2022-09-28T06:04:00.153Z,7.98
2022-09-28T06:05:00.178Z,7.90
2022-09-28T06:06:00.179Z,7.78
2022-09-28T06:07:00.130Z,7.64
2022-09-28T06:08:00.290Z,7.62
2022-09-28T06:09:00.123Z,7.61
2022-09-28T06:10:00.168Z,7.61
2022-09-28T06:11:00.196Z,7.61
2022-09-28T06:12:00.138Z,7.55
2022-09-28T06:13:00.251Z,7.56
2022-09-28T06:14:00.062Z,7.51
2022-09-28T06:15:00.172Z,7.55
2022-09-28T06:16:00.109Z,7.47
2022-09-28T06:17:00.211Z,7.51
2022-09-28T06:18:00.055Z,7.44
2022-09-28T06:19:00.106Z,7.51
2022-09-28T06:19:59.982Z,7.61
2022-09-28T06:20:59.995Z,7.58
2022-09-28T06:21:59.950Z,7.53
2022-09-28T06:23:00.044Z,7.64
2022-09-28T06:24:00.018Z,7.61
2022-09-28T06:24:59.951Z,7.64
2022-09-28T06:26:00.001Z,7.70
2022-09-28T06:26:59.949Z,7.74
2022-09-28T06:27:59.922Z,7.75
2022-09-28T06:28:59.945Z,7.78
2022-09-28T06:29:59.897Z,7.77
2022-09-28T06:31:00.041Z,7.74
2022-09-28T06:31:59.874Z,7.69
2022-09-28T06:32:59.875Z,7.74
2022-09-28T06:34:00.158Z,7.75
2022-09-28T06:34:59.925Z,7.62
2022-09-28T06:35:59.832Z,7.78
2022-09-28T06:36:59.804Z,7.72
2022-09-28T06:37:59.808Z,7.70
2022-09-28T06:38:59.843Z,7.67
2022-09-28T06:39:59.843Z,7.74
2022-09-28T06:40:59.956Z,7.78
2022-09-28T06:41:59.837Z,7.84
2022-09-28T06:42:59.770Z,7.84
2022-09-28T06:43:59.886Z,7.85
2022-09-28T06:44:59.814Z,7.88
2022-09-28T06:45:59.823Z,7.99
2022-09-28T06:46:59.794Z,7.83
2022-09-28T06:48:00.039Z,7.72
2022-09-28T06:48:59.842Z,7.83
2022-09-28T06:49:59.763Z,7.98
2022-09-28T06:50:59.699Z,7.88
2022-09-28T06:51:59.782Z,7.98
2022-09-28T06:52:59.669Z,7.96
2022-09-28T06:53:59.818Z,8.06
2022-09-28T06:54:59.636Z,7.99
2022-09-28T06:55:59.705Z,8.03
2022-09-28T06:56:59.685Z,8.02
2022-09-28T06:57:59.590Z,8.05
2022-09-28T06:58:59.682Z,8.11
2022-09-28T06:59:59.699Z,8.21
2022-09-28T07:00:59.702Z,8.13
2022-09-28T07:01:59.615Z,8.27
2022-09-28T07:02:59.701Z,8.27
2022-09-28T07:03:59.602Z,8.23
2022-09-28T07:04:59.777Z,8.32
2022-09-28T07:05:59.517Z,8.36
2022-09-28T07:06:59.619Z,8.44
2022-09-28T07:07:59.522Z,8.49
2022-09-28T07:09:21.081Z,8.57
2022-09-28T07:10:01.678Z,8.49
2022-09-28T07:10:59.563Z,8.44
2022-09-28T07:11:59.563Z,8.45
2022-09-28T07:12:59.549Z,8.49
2022-09-28T07:13:59.526Z,8.52
2022-09-28T07:14:59.440Z,8.50
2022-09-28T07:15:59.434Z,8.46
2022-09-28T07:17:30.478Z,8.52
2022-09-28T07:18:02.733Z,8.54
2022-09-28T07:19:00.559Z,8.56
2022-09-28T07:20:05.291Z,8.54
2022-09-28T07:21:00.393Z,8.63
2022-09-28T07:22:04.718Z,8.54
2022-09-28T07:23:12.289Z,8.45
2022-09-28T07:24:01.561Z,8.60
2022-09-28T07:24:59.401Z,8.45
2022-09-28T07:25:59.319Z,8.56
2022-09-28T07:26:59.295Z,8.42
2022-09-28T07:27:59.357Z,8.50
2022-09-28T07:28:59.467Z,8.53
2022-09-28T07:29:59.274Z,8.61
2022-09-28T07:30:59.409Z,8.59
2022-09-28T07:31:59.365Z,8.68
2022-09-28T07:32:59.214Z,8.78
2022-09-28T07:34:00.799Z,8.78
2022-09-28T07:34:59.353Z,8.89
2022-09-28T07:35:59.216Z,9.09
2022-09-28T07:36:59.258Z,9.18
2022-09-28T07:37:59.309Z,9.33
2022-09-28T07:38:59.315Z,9.33
2022-09-28T07:39:59.190Z,9.36
2022-09-28T07:40:59.330Z,9.30
2022-09-28T07:42:02.576Z,9.47
2022-09-28T07:43:00.137Z,9.72
2022-09-28T07:43:59.310Z,9.64
2022-09-28T07:44:59.146Z,9.80
2022-09-28T07:45:59.286Z,9.80
2022-09-28T07:46:59.171Z,9.87
2022-09-28T07:47:59.254Z,9.84
2022-09-28T07:48:59.477Z,9.66
2022-09-28T07:49:59.070Z,9.56
2022-09-28T07:50:59.053Z,9.51
2022-09-28T07:51:59.101Z,9.47
2022-09-28T07:52:59.130Z,9.40
2022-09-28T07:53:59.154Z,9.40
2022-09-28T07:55:02.185Z,9.69
2022-09-28T07:56:00.117Z,9.69
2022-09-28T07:56:59.097Z,9.76
2022-09-28T07:57:59.082Z,9.82
2022-09-28T07:58:59.036Z,9.76
2022-09-28T07:59:59.045Z,9.94
2022-09-28T08:00:59.117Z,9.95
2022-09-28T08:01:59.012Z,10.00
2022-09-28T08:02:58.976Z,9.76
2022-09-28T08:03:58.922Z,9.74
2022-09-28T08:04:59.006Z,9.69
2022-09-28T08:05:58.890Z,9.62
2022-09-28T08:06:58.876Z,9.72
2022-09-28T08:07:58.831Z,9.90
2022-09-28T08:08:58.886Z,9.81
2022-09-28T08:09:58.839Z,10.02
2022-09-28T08:10:58.833Z,9.76
2022-09-28T08:11:58.930Z,9.62
2022-09-28T08:13:01.977Z,9.51
2022-09-28T08:13:58.857Z,9.37
2022-09-28T08:14:58.815Z,9.40
2022-09-28T08:15:58.790Z,9.42
2022-09-28T08:16:58.784Z,9.58
2022-09-28T08:18:02.018Z,9.48
2022-09-28T08:18:58.835Z,9.51
2022-09-28T08:19:58.763Z,9.39
2022-09-28T08:20:58.772Z,9.45
2022-09-28T08:21:58.824Z,9.51
2022-09-28T08:22:58.753Z,9.42
2022-09-28T08:23:58.736Z,9.70
2022-09-28T08:24:58.828Z,9.64
2022-09-28T08:25:58.747Z,9.64
2022-09-28T08:26:58.730Z,9.84
2022-09-28T08:27:58.767Z,9.84
2022-09-28T08:28:58.783Z,9.90
2022-09-28T08:29:58.669Z,9.94
2022-09-28T08:30:58.650Z,9.85
2022-09-28T08:32:01.494Z,9.87
2022-09-28T08:32:59.586Z,9.72
2022-09-28T08:33:58.631Z,9.67
2022-09-28T08:34:58.669Z,9.69
2022-09-28T08:35:58.539Z,9.58
2022-09-28T08:36:58.590Z,9.54
2022-09-28T08:37:58.643Z,9.66
2022-09-28T08:38:58.662Z,9.64
2022-09-28T08:39:58.531Z,9.73
2022-09-28T08:40:58.563Z,9.91
2022-09-28T08:41:58.586Z,9.84
2022-09-28T08:42:58.541Z,9.88
2022-09-28T08:43:58.484Z,9.97
2022-09-28T08:44:58.514Z,10.03
2022-09-28T08:45:58.500Z,10.12
2022-09-28T08:46:58.408Z,9.92
2022-09-28T08:47:58.456Z,10.18
2022-09-28T08:49:13.772Z,10.31
2022-09-28T08:50:00.577Z,10.31
2022-09-28T08:50:58.357Z,10.33
2022-09-28T08:51:58.492Z,10.31
2022-09-28T08:52:58.398Z,10.41
2022-09-28T08:53:58.363Z,10.33
2022-09-28T08:54:58.352Z,10.33
2022-09-28T08:55:58.304Z,10.30
2022-09-28T08:56:58.289Z,10.34
2022-09-28T08:57:58.405Z,10.13
2022-09-28T08:58:58.305Z,10.25
2022-09-28T08:59:58.285Z,10.34
2022-09-28T09:00:58.307Z,10.53
2022-09-28T09:01:58.237Z,10.64
2022-09-28T09:02:58.314Z,10.48
2022-09-28T09:03:58.280Z,10.64
2022-09-28T09:04:58.230Z,10.49
2022-09-28T09:05:58.287Z,10.45
2022-09-28T09:06:58.189Z,10.62
2022-09-28T09:07:58.213Z,10.49
2022-09-28T09:08:58.220Z,10.67
2022-09-28T09:09:58.278Z,10.76
2022-09-28T09:10:58.256Z,10.92
2022-09-28T09:11:58.140Z,10.84
2022-09-28T09:12:58.127Z,10.68
2022-09-28T09:13:58.501Z,10.59
2022-09-28T09:14:58.164Z,10.62
2022-09-28T09:15:58.144Z,10.49
2022-09-28T09:17:00.461Z,10.38
2022-09-28T09:17:59.097Z,10.34
2022-09-28T09:18:58.073Z,10.33
2022-09-28T09:19:58.052Z,10.43
2022-09-28T09:20:58.031Z,10.34
2022-09-28T09:21:58.033Z,10.39
2022-09-28T09:22:58.131Z,10.21
2022-09-28T09:23:58.115Z,10.15
2022-09-28T09:24:57.962Z,10.05
2022-09-28T09:25:58.053Z,9.77
2022-09-28T09:26:57.959Z,9.66
2022-09-28T09:27:58.071Z,9.54
2022-09-28T09:28:58.065Z,9.49
2022-09-28T09:29:57.921Z,9.44
2022-09-28T09:30:58.027Z,9.48
2022-09-28T09:31:57.999Z,9.39
2022-09-28T09:32:57.919Z,9.40
2022-09-28T09:33:58.007Z,9.31
2022-09-28T09:34:57.889Z,9.47
2022-09-28T09:35:57.930Z,9.44
2022-09-28T09:36:57.835Z,9.26
2022-09-28T09:37:58.727Z,9.15
2022-09-28T09:38:58.878Z,9.00
2022-09-28T09:39:57.904Z,8.96
2022-09-28T09:40:57.929Z,8.90
2022-09-28T09:41:57.925Z,8.75
2022-09-28T09:42:57.915Z,8.79
2022-09-28T09:43:58.172Z,8.66
2022-09-28T09:44:57.763Z,8.75
2022-09-28T09:45:57.862Z,8.72
2022-09-28T09:46:57.879Z,8.68
2022-09-28T09:47:57.800Z,8.82
2022-09-28T09:48:57.775Z,8.84
2022-09-28T09:49:57.710Z,8.81
2022-09-28T09:50:57.840Z,8.75
2022-09-28T09:51:57.711Z,8.72
2022-09-28T09:52:57.698Z,8.84
2022-09-28T09:53:57.730Z,8.86
2022-09-28T09:54:57.688Z,8.92
2022-09-28T09:55:57.640Z,8.99
2022-09-28T09:56:57.664Z,9.15
2022-09-28T09:57:57.757Z,9.31
2022-09-28T09:58:57.732Z,9.39
2022-09-28T09:59:57.681Z,9.48
2022-09-28T10:00:57.722Z,9.47
2022-09-28T10:01:57.731Z,9.51
2022-09-28T10:02:57.625Z,9.54
2022-09-28T10:03:58.083Z,9.59
2022-09-28T10:04:57.648Z,9.70
2022-09-28T10:05:57.602Z,9.66
2022-09-28T10:06:57.554Z,9.73
2022-09-28T10:07:57.615Z,9.84
2022-09-28T10:08:57.559Z,9.85
2022-09-28T10:09:57.557Z,9.91
2022-09-28T10:10:57.494Z,10.02
2022-09-28T10:11:57.479Z,10.18
2022-09-28T10:12:57.463Z,10.41
2022-09-28T10:13:57.510Z,10.55
2022-09-28T10:14:57.466Z,10.65
2022-09-28T10:15:57.427Z,10.61
2022-09-28T10:16:57.690Z,10.46
2022-09-28T10:17:57.487Z,10.38
2022-09-28T10:18:57.795Z,10.61
2022-09-28T10:19:57.393Z,10.65
2022-09-28T10:20:57.460Z,10.51
2022-09-28T10:21:57.479Z,10.59
2022-09-28T10:22:57.425Z,10.38
2022-09-28T10:23:57.382Z,10.34
2022-09-28T10:24:57.437Z,10.51
2022-09-28T10:25:57.334Z,10.31
2022-09-28T10:26:57.320Z,10.53
2022-09-28T10:27:57.327Z,10.64
2022-09-28T10:28:57.342Z,10.87
2022-09-28T10:29:57.375Z,11.05
2022-09-28T10:30:57.497Z,10.89
2022-09-28T10:31:57.249Z,10.94
2022-09-28T10:32:57.369Z,10.89
2022-09-28T10:33:57.374Z,11.12
2022-09-28T10:34:57.247Z,10.86
2022-09-28T10:35:57.251Z,11.15
2022-09-28T10:36:57.210Z,11.16
2022-09-28T10:37:57.196Z,11.08
2022-09-28T10:38:57.210Z,11.01
2022-09-28T10:39:57.151Z,11.01
2022-09-28T10:40:57.197Z,10.94
2022-09-28T10:41:57.171Z,10.95
2022-09-28T10:42:57.136Z,10.90
2022-09-28T10:43:58.156Z,11.07
2022-09-28T10:44:58.166Z,11.16
2022-09-28T10:45:57.185Z,11.10
2022-09-28T10:46:57.157Z,11.08
2022-09-28T10:47:57.059Z,11.16
2022-09-28T10:48:57.212Z,11.40
2022-09-28T10:49:57.042Z,11.38
2022-09-28T10:50:57.093Z,11.38
2022-09-28T10:51:57.055Z,11.44
2022-09-28T10:52:57.020Z,11.45
2022-09-28T10:53:57.029Z,11.43
2022-09-28T10:54:57.153Z,11.43
2022-09-28T10:55:57.039Z,11.52
2022-09-28T10:56:57.086Z,11.67
2022-09-28T10:57:56.958Z,11.48
2022-09-28T10:58:56.951Z,11.62
2022-09-28T10:59:57.099Z,11.62
2022-09-28T11:00:56.940Z,11.55
2022-09-28T11:01:57.141Z,11.73
2022-09-28T11:02:56.965Z,11.76
2022-09-28T11:03:56.955Z,11.60
2022-09-28T11:04:57.046Z,11.63
2022-09-28T11:05:57.012Z,11.80
2022-09-28T11:06:56.972Z,11.70
2022-09-28T11:07:56.865Z,11.52
2022-09-28T11:08:56.842Z,11.51
2022-09-28T11:09:56.881Z,11.51
2022-09-28T11:10:56.888Z,11.53
2022-09-28T11:11:56.903Z,11.62
2022-09-28T11:12:56.792Z,11.59
2022-09-28T11:13:56.781Z,11.43
2022-09-28T11:14:56.977Z,11.40
2022-09-28T11:15:56.751Z,11.35
2022-09-28T11:16:56.825Z,11.30
2022-09-28T11:17:56.773Z,11.25
2022-09-28T11:18:56.841Z,11.20
2022-09-28T11:19:56.941Z,11.15
2022-09-28T11:20:56.966Z,11.13
2022-09-28T11:21:56.663Z,11.19
2022-09-28T11:22:57.748Z,11.12
2022-09-28T11:23:56.720Z,10.98
2022-09-28T11:24:56.702Z,10.80
2022-09-28T11:25:56.842Z,10.41
2022-09-28T11:26:56.734Z,10.15
2022-09-28T11:27:56.708Z,9.74
2022-09-28T11:28:56.733Z,9.49
2022-09-28T11:29:56.734Z,9.22
2022-09-28T11:30:56.597Z,9.02
2022-09-28T11:31:56.706Z,8.93
2022-09-28T11:32:56.678Z,8.89
2022-09-28T11:33:56.659Z,8.87
2022-09-28T11:34:59.434Z,8.82
2022-09-28T11:35:57.636Z,8.89
2022-09-28T11:37:01.425Z,8.82
2022-09-28T11:37:58.519Z,8.92
2022-09-28T11:38:56.573Z,8.77
2022-09-28T11:39:56.573Z,8.77
2022-09-28T11:40:56.553Z,8.71
2022-09-28T11:41:56.564Z,8.71
2022-09-28T11:42:56.518Z,8.71
2022-09-28T11:43:56.442Z,8.82
2022-09-28T11:44:56.585Z,8.82
2022-09-28T11:45:56.504Z,8.89
2022-09-28T11:46:56.442Z,9.05
2022-09-28T11:47:56.398Z,9.00
2022-09-28T11:48:56.468Z,9.02
2022-09-28T11:49:56.749Z,9.12
2022-09-28T11:50:56.607Z,9.16
2022-09-28T11:51:56.444Z,9.22
2022-09-28T11:52:56.432Z,9.27
2022-09-28T11:53:56.430Z,9.34
2022-09-28T11:54:56.480Z,9.34
2022-09-28T11:55:56.350Z,9.44
2022-09-28T11:56:56.269Z,9.48
2022-09-28T11:57:56.374Z,9.36
2022-09-28T11:58:56.360Z,9.40
2022-09-28T11:59:56.662Z,9.48
2022-09-28T12:00:56.380Z,9.37
2022-09-28T12:01:57.360Z,9.40
2022-09-28T12:02:56.351Z,9.56
2022-09-28T12:03:56.278Z,9.45
2022-09-28T12:04:56.617Z,9.49
2022-09-28T12:05:56.274Z,9.36
2022-09-28T12:06:56.198Z,9.27
2022-09-28T12:07:56.242Z,9.16
2022-09-28T12:08:56.269Z,9.31
2022-09-28T12:09:56.200Z,9.42
2022-09-28T12:10:56.153Z,9.26
2022-09-28T12:11:56.238Z,9.29
2022-09-28T12:12:56.145Z,9.31
2022-09-28T12:13:56.174Z,9.34
2022-09-28T12:14:56.140Z,9.39
2022-09-28T12:17:06.963Z,9.58
2022-09-28T12:17:58.267Z,9.62
2022-09-28T12:18:56.107Z,9.72
2022-09-28T12:19:56.132Z,9.77
2022-09-28T12:20:56.097Z,9.84
2022-09-28T12:21:56.132Z,9.87
2022-09-28T12:22:56.132Z,9.97
2022-09-28T12:23:56.004Z,10.12
2022-09-28T12:24:56.165Z,10.15
2022-09-28T12:25:56.008Z,10.25
2022-09-28T12:26:55.996Z,10.42
2022-09-28T12:27:55.939Z,10.67
2022-09-28T12:28:55.948Z,10.71
2022-09-28T12:29:56.302Z,10.75
2022-09-28T12:30:55.973Z,11.19
2022-09-28T12:31:56.020Z,11.49
2022-09-28T12:32:55.894Z,11.58
2022-09-28T12:33:56.020Z,11.58
2022-09-28T12:34:55.953Z,11.51
2022-09-28T12:35:55.971Z,11.56
2022-09-28T12:36:56.137Z,11.83
2022-09-28T12:37:55.965Z,11.99
2022-09-28T12:39:17.479Z,11.89
2022-09-28T12:39:58.639Z,11.95
2022-09-28T12:40:56.946Z,12.25
2022-09-28T12:41:56.362Z,12.29
2022-09-28T12:42:55.814Z,12.11
2022-09-28T12:43:55.873Z,12.21
2022-09-28T12:44:59.283Z,12.29
2022-09-28T12:46:11.606Z,12.11
2022-09-28T12:46:58.199Z,11.97
2022-09-28T12:47:55.862Z,12.00
2022-09-28T12:49:36.710Z,11.91
2022-09-28T12:50:58.365Z,11.05
2022-09-28T12:51:56.724Z,10.53
2022-09-28T12:52:58.128Z,10.48
2022-09-28T12:53:56.880Z,10.51
2022-09-28T12:54:55.709Z,10.25
2022-09-28T12:55:55.774Z,9.90
2022-09-28T12:56:55.738Z,9.66
2022-09-28T12:57:55.645Z,9.62
2022-09-28T12:58:55.685Z,9.54
2022-09-28T12:59:55.751Z,9.51
2022-09-28T13:00:55.747Z,9.47
2022-09-28T13:01:56.686Z,9.37
2022-09-28T13:02:55.716Z,9.44
2022-09-28T13:03:55.569Z,9.51
2022-09-28T13:04:55.717Z,9.47
2022-09-28T13:05:55.649Z,9.49
2022-09-28T13:06:55.643Z,9.31
2022-09-28T13:07:55.576Z,9.42
2022-09-28T13:08:56.530Z,9.37
2022-09-28T13:09:55.561Z,9.51
2022-09-28T13:10:55.600Z,9.54
2022-09-28T13:11:55.527Z,9.77
2022-09-28T13:12:55.518Z,10.09
2022-09-28T13:13:55.528Z,10.34
2022-09-28T13:14:55.612Z,10.33
2022-09-28T13:15:55.598Z,10.05
2022-09-28T13:17:00.417Z,10.09
2022-09-28T13:17:57.351Z,9.94
2022-09-28T13:18:55.454Z,9.87
2022-09-28T13:19:55.412Z,9.81
2022-09-28T13:20:55.446Z,9.72
2022-09-28T13:21:56.373Z,9.69
2022-09-28T13:22:55.468Z,9.64
2022-09-28T13:24:04.474Z,9.69
2022-09-28T13:24:57.492Z,9.84
2022-09-28T13:25:55.392Z,9.74
2022-09-28T13:26:55.377Z,9.67
2022-09-28T13:27:55.309Z,9.66
2022-09-28T13:28:55.390Z,9.63
2022-09-28T13:29:56.676Z,9.55
2022-09-28T13:30:55.616Z,9.51
2022-09-28T13:31:55.308Z,9.48
2022-09-28T13:32:55.335Z,9.64
2022-09-28T13:33:55.337Z,9.58
2022-09-28T13:34:55.281Z,9.73
2022-09-28T13:35:56.037Z,9.64
2022-09-28T13:36:55.256Z,9.69
2022-09-28T13:37:55.198Z,9.81
2022-09-28T13:38:55.228Z,9.82
2022-09-28T13:39:55.225Z,9.80
2022-09-28T13:40:55.293Z,9.94
2022-09-28T13:41:55.240Z,9.82
2022-09-28T13:42:55.224Z,9.88
2022-09-28T13:43:55.128Z,10.15
2022-09-28T13:44:55.247Z,10.15
2022-09-28T13:45:55.238Z,10.10
2022-09-28T13:46:55.156Z,10.18
2022-09-28T13:47:55.130Z,10.02
2022-09-28T13:48:55.123Z,10.24
2022-09-28T13:49:55.195Z,10.38
2022-09-28T13:50:55.091Z,10.36
2022-09-28T13:51:55.156Z,10.25
2022-09-28T13:52:55.054Z,10.34
2022-09-28T13:53:55.100Z,10.30
2022-09-28T13:54:55.030Z,10.39
2022-09-28T13:55:54.988Z,10.46
2022-09-28T13:56:55.069Z,10.48
2022-09-28T13:57:55.066Z,10.48
2022-09-28T13:58:55.057Z,10.71
2022-09-28T13:59:55.135Z,10.84
2022-09-28T14:00:54.949Z,11.26
2022-09-28T14:01:55.025Z,11.53
2022-09-28T14:02:54.980Z,11.83
2022-09-28T14:03:54.903Z,12.05
2022-09-28T14:04:55.263Z,12.10
2022-09-28T14:05:54.851Z,12.20
2022-09-28T14:06:55.813Z,12.18
2022-09-28T14:07:57.256Z,12.26
2022-09-28T14:08:54.893Z,12.36
2022-09-28T14:09:54.963Z,12.48
2022-09-28T14:10:54.877Z,12.53
2022-09-28T14:11:54.923Z,12.62
2022-09-28T14:12:54.948Z,12.72
2022-09-28T14:13:54.811Z,12.81
2022-09-28T14:14:54.813Z,12.83
2022-09-28T14:15:54.772Z,12.78
2022-09-28T14:16:54.828Z,12.73
2022-09-28T14:17:54.760Z,12.84
2022-09-28T14:19:13.433Z,12.76
2022-09-28T14:19:54.893Z,12.86
2022-09-28T14:20:54.787Z,12.84
2022-09-28T14:21:54.750Z,12.75
2022-09-28T14:22:54.747Z,12.93
2022-09-28T14:23:59.027Z,13.24
2022-09-28T14:24:56.889Z,13.11
2022-09-28T14:25:54.645Z,13.28
2022-09-28T14:26:54.984Z,13.37
2022-09-28T14:27:54.616Z,13.24
2022-09-28T14:28:54.632Z,13.36
2022-09-28T14:29:54.804Z,13.57
2022-09-28T14:30:54.723Z,13.75
2022-09-28T14:31:54.583Z,13.68
2022-09-28T14:32:54.691Z,13.87
2022-09-28T14:33:54.614Z,13.85
2022-09-28T14:34:54.589Z,13.87
2022-09-28T14:35:54.646Z,13.98
2022-09-28T14:36:54.641Z,14.22
2022-09-28T14:37:54.517Z,14.18
2022-09-28T14:38:54.496Z,14.40
2022-09-28T14:39:54.645Z,14.52
2022-09-28T14:40:54.530Z,14.56
2022-09-28T14:41:54.531Z,14.77
2022-09-28T14:42:54.472Z,14.81
2022-09-28T14:43:54.450Z,14.92
2022-09-28T14:44:54.453Z,15.30
2022-09-28T14:45:54.629Z,15.37
2022-09-28T14:46:54.466Z,15.47
2022-09-28T14:47:54.512Z,15.36
2022-09-28T14:48:54.410Z,15.32
2022-09-28T14:49:54.565Z,15.30
2022-09-28T14:50:54.364Z,15.44
2022-09-28T14:51:54.449Z,15.44
2022-09-28T14:52:55.448Z,15.12
2022-09-28T14:53:54.463Z,14.97
2022-09-28T14:54:54.373Z,14.61
2022-09-28T14:55:54.367Z,14.53
2022-09-28T14:56:54.436Z,14.40
2022-09-28T14:57:54.270Z,14.36
2022-09-28T14:58:55.404Z,14.30
2022-09-28T14:59:54.306Z,14.36
2022-09-28T15:00:54.274Z,14.15
2022-09-28T15:01:54.335Z,14.07
2022-09-28T15:02:54.273Z,14.15
2022-09-28T15:03:54.357Z,14.44
2022-09-28T15:04:54.605Z,14.51
2022-09-28T15:05:54.316Z,14.49
2022-09-28T15:06:54.434Z,14.43
2022-09-28T15:07:54.253Z,14.40
2022-09-28T15:08:54.238Z,14.25
2022-09-28T15:09:54.547Z,14.19
2022-09-28T15:10:54.213Z,14.25
2022-09-28T15:11:54.141Z,14.03
2022-09-28T15:12:54.201Z,13.94
2022-09-28T15:13:54.237Z,13.80
2022-09-28T15:14:54.264Z,14.01
2022-09-28T15:15:54.192Z,14.26
2022-09-28T15:16:54.196Z,14.15
2022-09-28T15:17:54.162Z,14.25
2022-09-28T15:18:54.118Z,13.89
2022-09-28T15:19:54.103Z,13.39
2022-09-28T15:20:54.051Z,13.23
2022-09-28T15:21:55.136Z,13.71
2022-09-28T15:22:54.140Z,13.89
2022-09-28T15:23:54.090Z,14.13
2022-09-28T15:24:56.643Z,14.15
2022-09-28T15:25:54.060Z,13.85
2022-09-28T15:26:53.977Z,13.58
2022-09-28T15:27:53.990Z,13.76
2022-09-28T15:28:54.036Z,13.98
2022-09-28T15:29:53.988Z,13.82
2022-09-28T15:30:54.020Z,13.73
2022-09-28T15:31:54.738Z,13.62
2022-09-28T15:32:54.931Z,13.33
2022-09-28T15:33:53.910Z,13.16
2022-09-28T15:34:54.000Z,13.12
2022-09-28T15:35:55.035Z,12.88
2022-09-28T15:36:53.897Z,12.75
2022-09-28T15:37:53.915Z,12.83
2022-09-28T15:38:53.877Z,13.27
2022-09-28T15:39:54.050Z,13.11
2022-09-28T15:40:53.905Z,12.99
2022-09-28T15:41:53.912Z,12.88
2022-09-28T15:42:58.371Z,12.66
2022-09-28T15:43:55.945Z,12.58
2022-09-28T15:44:53.786Z,12.44
2022-09-28T15:45:54.212Z,12.25
2022-09-28T15:46:53.852Z,12.12
2022-09-28T15:47:53.754Z,12.20
2022-09-28T15:48:53.807Z,12.29
2022-09-28T15:49:53.732Z,12.75
2022-09-28T15:50:53.812Z,13.06
2022-09-28T15:51:53.735Z,13.23
2022-09-28T15:52:53.715Z,13.16
2022-09-28T15:53:53.820Z,13.02
2022-09-28T15:54:53.668Z,12.87
2022-09-28T15:55:53.715Z,12.83
2022-09-28T15:56:53.670Z,12.88
2022-09-28T15:57:53.624Z,12.73
2022-09-28T15:58:53.712Z,12.83
2022-09-28T15:59:53.778Z,12.80
2022-09-28T16:00:53.686Z,12.94
2022-09-28T16:01:53.753Z,13.45
2022-09-28T16:02:53.720Z,13.91
2022-09-28T16:03:53.605Z,14.08
2022-09-28T16:04:53.559Z,13.95
2022-09-28T16:05:53.593Z,13.89
2022-09-28T16:06:53.609Z,13.98
2022-09-28T16:07:56.099Z,13.80
2022-09-28T16:08:54.625Z,14.08
2022-09-28T16:09:53.639Z,14.36
2022-09-28T16:10:54.037Z,14.66
2022-09-28T16:11:53.536Z,14.81
2022-09-28T16:12:53.479Z,14.78
2022-09-28T16:13:53.544Z,14.68
2022-09-28T16:14:53.541Z,14.52
2022-09-28T16:15:53.583Z,14.22
2022-09-28T16:16:53.668Z,13.80
2022-09-28T16:17:53.487Z,13.70
2022-09-28T16:18:53.472Z,13.87
2022-09-28T16:19:53.509Z,14.07
2022-09-28T16:20:53.423Z,13.75
2022-09-28T16:21:53.474Z,13.85
2022-09-28T16:22:53.484Z,13.11
2022-09-28T16:23:53.387Z,12.84
2022-09-28T16:24:53.350Z,12.75
2022-09-28T16:25:53.381Z,12.48
2022-09-28T16:26:53.326Z,12.48
2022-09-28T16:27:53.305Z,12.39
2022-09-28T16:28:53.318Z,12.28
2022-09-28T16:29:53.297Z,12.25
2022-09-28T16:30:53.312Z,12.21
2022-09-28T16:31:53.282Z,12.15
2022-09-28T16:32:53.226Z,12.10
2022-09-28T16:33:53.215Z,12.00
2022-09-28T16:34:53.209Z,12.15
2022-09-28T16:35:53.271Z,12.05
2022-09-28T16:36:53.189Z,12.11
2022-09-28T16:37:53.282Z,12.08
2022-09-28T16:38:53.168Z,12.21
2022-09-28T16:39:53.225Z,12.21
2022-09-28T16:40:53.215Z,12.14
2022-09-28T16:41:53.262Z,12.17
2022-09-28T16:42:53.184Z,12.00
2022-09-28T16:43:53.241Z,11.97
2022-09-28T16:44:53.177Z,11.99
2022-09-28T16:45:53.189Z,11.95
2022-09-28T16:46:53.135Z,12.08
2022-09-28T16:47:53.195Z,11.91
2022-09-28T16:48:53.058Z,11.83
2022-09-28T16:49:53.063Z,11.80
2022-09-28T16:50:53.378Z,11.71
2022-09-28T16:51:53.107Z,11.65
2022-09-28T16:52:56.786Z,11.68
2022-09-28T16:53:54.048Z,11.58
2022-09-28T16:54:53.107Z,11.48
2022-09-28T16:55:53.073Z,11.45
2022-09-28T16:56:53.091Z,11.44
2022-09-28T16:57:52.987Z,11.40
2022-09-28T16:58:52.955Z,11.38
2022-09-28T16:59:52.977Z,11.52
2022-09-28T17:00:52.955Z,11.38
2022-09-28T17:01:53.072Z,11.43
2022-09-28T17:02:53.029Z,11.44
2022-09-28T17:03:52.922Z,11.51
2022-09-28T17:04:52.920Z,11.51
2022-09-28T17:05:52.925Z,11.35
2022-09-28T17:06:52.994Z,11.41
2022-09-28T17:07:52.839Z,11.25
2022-09-28T17:08:52.853Z,11.22
2022-09-28T17:09:52.864Z,11.23
2022-09-28T17:11:22.594Z,11.07
2022-09-28T17:11:54.821Z,11.00
2022-09-28T17:12:52.795Z,10.97
2022-09-28T17:13:52.906Z,10.89
2022-09-28T17:14:52.800Z,10.89
2022-09-28T17:15:52.856Z,10.84
2022-09-28T17:17:08.175Z,10.89
2022-09-28T17:17:54.803Z,10.80
2022-09-28T17:18:52.729Z,10.80
2022-09-28T17:19:52.736Z,10.80
2022-09-28T17:20:52.740Z,10.82
2022-09-28T17:21:52.682Z,10.80
2022-09-28T17:22:52.742Z,10.80
2022-09-28T17:23:52.718Z,10.75
2022-09-28T17:24:52.689Z,10.65
2022-09-28T17:25:52.723Z,10.75
2022-09-28T17:26:52.710Z,10.65
2022-09-28T17:27:52.647Z,10.58
2022-09-28T17:28:52.597Z,10.58
2022-09-28T17:29:52.593Z,10.53
2022-09-28T17:30:52.783Z,10.46
2022-09-28T17:31:52.599Z,10.57
2022-09-28T17:32:52.568Z,10.49
2022-09-28T17:33:52.578Z,10.49
2022-09-28T17:35:06.441Z,10.41
2022-09-28T17:35:54.668Z,10.39
2022-09-28T17:36:52.539Z,10.30
2022-09-28T17:37:52.497Z,10.38
2022-09-28T17:38:52.518Z,10.28
2022-09-28T17:39:52.494Z,10.17
2022-09-28T17:40:52.645Z,10.17
2022-09-28T17:41:52.489Z,10.06
2022-09-28T17:42:52.478Z,9.97
2022-09-28T17:43:52.440Z,9.94
2022-09-28T17:44:52.549Z,9.76
2022-09-28T17:45:52.611Z,9.66
2022-09-28T17:46:52.435Z,9.63
2022-09-28T17:47:52.432Z,9.67
2022-09-28T17:48:52.389Z,9.58
2022-09-28T17:49:52.419Z,9.59
2022-09-28T17:50:52.429Z,9.67
2022-09-28T17:51:52.395Z,9.58
2022-09-28T17:52:52.364Z,9.56
2022-09-28T17:53:52.383Z,9.51
2022-09-28T17:54:52.388Z,9.54
2022-09-28T17:55:52.354Z,9.39
2022-09-28T17:56:52.317Z,9.51
2022-09-28T17:57:52.296Z,9.33
2022-09-28T17:58:52.308Z,9.34
2022-09-28T17:59:52.304Z,9.31
2022-09-28T18:00:52.345Z,9.33
2022-09-28T18:01:52.427Z,9.24
2022-09-28T18:02:52.339Z,9.19
2022-09-28T18:03:52.265Z,9.16
2022-09-28T18:04:52.710Z,9.18
2022-09-28T18:05:52.285Z,9.05
2022-09-28T18:06:52.227Z,8.99
2022-09-28T18:07:52.250Z,8.93
2022-09-28T18:08:52.185Z,8.96
2022-09-28T18:09:52.202Z,8.90
2022-09-28T18:10:52.205Z,8.89
2022-09-28T18:11:52.184Z,8.86
2022-09-28T18:12:53.157Z,8.79
2022-09-28T18:13:52.154Z,8.86
2022-09-28T18:14:52.126Z,8.71
2022-09-28T18:15:52.223Z,8.71
2022-09-28T18:16:52.138Z,8.74
2022-09-28T18:17:52.095Z,8.72
2022-09-28T18:18:51.995Z,8.72
2022-09-28T18:19:52.103Z,8.60
2022-09-28T18:20:52.121Z,8.66
2022-09-28T18:21:52.078Z,8.69
2022-09-28T18:22:52.047Z,8.61
2022-09-28T18:23:52.027Z,8.61
2022-09-28T18:24:52.057Z,8.69
2022-09-28T18:25:52.048Z,8.66
2022-09-28T18:26:52.026Z,8.74
2022-09-28T18:27:52.116Z,8.64
2022-09-28T18:28:51.971Z,8.66
2022-09-28T18:29:52.039Z,8.60
2022-09-28T18:30:52.070Z,8.63
2022-09-28T18:31:52.029Z,8.52
2022-09-28T18:32:51.946Z,8.56
2022-09-28T18:33:51.975Z,8.46
2022-09-28T18:34:51.962Z,8.52
2022-09-28T18:35:52.317Z,8.45
2022-09-28T18:36:51.884Z,8.45
2022-09-28T18:37:51.980Z,8.32
2022-09-28T18:38:51.867Z,8.36
2022-09-28T18:39:51.975Z,8.32
2022-09-28T18:40:51.948Z,8.34
2022-09-28T18:41:51.877Z,8.28
2022-09-28T18:42:51.858Z,8.21
2022-09-28T18:43:51.844Z,8.16
2022-09-28T18:44:51.826Z,8.08
2022-09-28T18:45:51.860Z,8.05
2022-09-28T18:46:51.859Z,7.99
2022-09-28T18:47:51.765Z,8.03
2022-09-28T18:48:51.898Z,8.02
2022-09-28T18:49:51.798Z,8.01
2022-09-28T18:50:51.815Z,8.01
2022-09-28T18:51:51.750Z,7.96
2022-09-28T18:52:51.841Z,7.96
2022-09-28T18:53:51.770Z,7.96
2022-09-28T18:54:51.722Z,7.98
2022-09-28T18:55:51.755Z,7.98
2022-09-28T18:56:51.692Z,7.96
2022-09-28T18:57:51.694Z,7.91
2022-09-28T18:58:51.675Z,7.95
2022-09-28T18:59:51.690Z,8.02
2022-09-28T19:00:51.687Z,8.08
2022-09-28T19:01:51.736Z,7.96
2022-09-28T19:02:51.738Z,8.01
2022-09-28T19:03:51.641Z,8.13
2022-09-28T19:04:51.626Z,8.13
2022-09-28T19:05:51.628Z,8.02
2022-09-28T19:06:51.647Z,8.08
2022-09-28T19:07:51.565Z,8.09
2022-09-28T19:08:51.563Z,8.17
2022-09-28T19:09:51.596Z,8.13